sensor_id;sensor_type;location;lat;lon;timestamp;P1;durP1;ratioP1;P2;durP2;ratioP2
21416;SDS011;10869;52.238;10.716;2023-08-31T05:56:57;25.83;;;17.33;;
21416;SDS011;10869;52.238;10.716;2023-08-31T05:59:23;25.73;;;18.27;;
21416;SDS011;10869;52.238;10.716;2023-08-31T06:01:49;28.43;;;19.50;;
21416;SDS011;10869;52.238;10.716;2023-08-31T06:04:14;23.50;;;19.50;;
21416;SDS011;10869;52.238;10.716;2023-08-31T06:06:40;29.07;;;18.07;;
21416;SDS011;10869;52.238;10.716;2023-08-31T06:09:06;27.53;;;19.27;;
21416;SDS011;10869;52.238;10.716;2023-08-31T06:20:51;27.90;;;18.23;;
21416;SDS011;10869;52.238;10.716;2023-08-31T06:23:17;32.53;;;19.90;;
21416;SDS011;10869;52.238;10.716;2023-08-31T06:25:43;33.17;;;21.13;;
21416;SDS011;10869;52.238;10.716;2023-08-31T06:28:11;32.07;;;20.20;;
21416;SDS011;10869;52.238;10.716;2023-08-31T06:30:37;29.10;;;20.37;;
21416;SDS011;10869;52.238;10.716;2023-08-31T06:33:09;31.70;;;19.40;;
21416;SDS011;10869;52.238;10.716;2023-08-31T06:35:35;26.27;;;19.37;;
21416;SDS011;10869;52.238;10.716;2023-08-31T06:38:02;31.03;;;21.50;;
21416;SDS011;10869;52.238;10.716;2023-08-31T06:43:09;28.57;;;21.90;;
21416;SDS011;10869;52.238;10.716;2023-08-31T06:48:57;28.57;;;19.10;;
21416;SDS011;10869;52.238;10.716;2023-08-31T06:54:45;24.83;;;20.70;;
21416;SDS011;10869;52.238;10.716;2023-08-31T06:57:11;30.63;;;21.00;;
21416;SDS011;10869;52.238;10.716;2023-08-31T06:59:37;27.00;;;17.27;;
21416;SDS011;10869;52.238;10.716;2023-08-31T07:02:03;23.83;;;19.73;;
21416;SDS011;10869;52.238;10.716;2023-08-31T07:04:29;24.53;;;18.03;;
21416;SDS011;10869;52.238;10.716;2023-08-31T07:06:55;29.63;;;19.67;;
21416;SDS011;10869;52.238;10.716;2023-08-31T07:09:21;25.20;;;19.03;;
21416;SDS011;10869;52.238;10.716;2023-08-31T07:11:48;22.53;;;16.40;;
21416;SDS011;10869;52.238;10.716;2023-08-31T07:14:15;23.50;;;17.00;;
21416;SDS011;10869;52.238;10.716;2023-08-31T07:16:42;22.47;;;16.57;;
21416;SDS011;10869;52.238;10.716;2023-08-31T07:19:08;22.47;;;17.40;;
21416;SDS011;10869;52.238;10.716;2023-08-31T07:21:34;25.53;;;18.27;;
21416;SDS011;10869;52.238;10.716;2023-08-31T08:13:15;10.37;;;6.13;;
21416;SDS011;10869;52.238;10.716;2023-08-31T08:18:26;10.97;;;6.23;;
21416;SDS011;10869;52.238;10.716;2023-08-31T08:20:53;9.37;;;5.67;;
21416;SDS011;10869;52.238;10.716;2023-08-31T08:23:22;9.20;;;6.37;;
21416;SDS011;10869;52.238;10.716;2023-08-31T09:40:49;6.60;;;2.60;;
21416;SDS011;10869;52.238;10.716;2023-08-31T09:51:31;5.97;;;2.33;;
21416;SDS011;10869;52.238;10.716;2023-08-31T09:54:05;4.90;;;1.80;;
21416;SDS011;10869;52.238;10.716;2023-08-31T10:14:39;4.03;;;1.77;;
21416;SDS011;10869;52.238;10.716;2023-08-31T10:27:27;10.80;;;2.17;;
21416;SDS011;10869;52.238;10.716;2023-08-31T10:53:43;10.10;;;1.97;;
21416;SDS011;10869;52.238;10.716;2023-08-31T10:59:46;4.80;;;1.63;;
21416;SDS011;10869;52.238;10.716;2023-08-31T11:28:35;3.87;;;1.60;;
21416;SDS011;10869;52.238;10.716;2023-08-31T11:49:32;5.07;;;1.50;;
21416;SDS011;10869;52.238;10.716;2023-08-31T11:54:43;2.53;;;1.37;;
21416;SDS011;10869;52.238;10.716;2023-08-31T11:57:19;4.07;;;1.20;;
21416;SDS011;10869;52.238;10.716;2023-08-31T12:59:51;5.77;;;2.00;;
21416;SDS011;10869;52.238;10.716;2023-08-31T13:06:42;5.87;;;2.43;;
21416;SDS011;10869;52.238;10.716;2023-08-31T13:27:16;5.87;;;1.77;;
21416;SDS011;10869;52.238;10.716;2023-08-31T13:29:43;4.60;;;1.53;;
21416;SDS011;10869;52.238;10.716;2023-08-31T14:34:36;2.63;;;0.93;;
21416;SDS011;10869;52.238;10.716;2023-08-31T15:10:45;7.10;;;1.53;;
21416;SDS011;10869;52.238;10.716;2023-08-31T15:27:01;5.53;;;1.13;;
21416;SDS011;10869;52.238;10.716;2023-08-31T15:29:28;2.87;;;0.90;;
21416;SDS011;10869;52.238;10.716;2023-08-31T15:32:06;3.77;;;1.10;;
21416;SDS011;10869;52.238;10.716;2023-08-31T15:34:33;3.17;;;0.80;;
21416;SDS011;10869;52.238;10.716;2023-08-31T15:37:13;2.13;;;0.80;;
21416;SDS011;10869;52.238;10.716;2023-08-31T15:39:40;2.47;;;0.77;;
21416;SDS011;10869;52.238;10.716;2023-08-31T15:55:07;1.53;;;0.70;;
21416;SDS011;10869;52.238;10.716;2023-08-31T15:57:34;3.07;;;0.77;;
21416;SDS011;10869;52.238;10.716;2023-08-31T16:03:26;2.50;;;0.80;;
21416;SDS011;10869;52.238;10.716;2023-08-31T16:05:56;2.20;;;0.60;;
21416;SDS011;10869;52.238;10.716;2023-08-31T16:16:57;3.87;;;0.90;;
21416;SDS011;10869;52.238;10.716;2023-08-31T16:22:06;2.17;;;0.80;;
21416;SDS011;10869;52.238;10.716;2023-08-31T18:07:17;4.23;;;1.60;;
21416;SDS011;10869;52.238;10.716;2023-08-31T18:09:43;6.77;;;2.00;;
21416;SDS011;10869;52.238;10.716;2023-08-31T18:15:37;3.67;;;1.20;;
21416;SDS011;10869;52.238;10.716;2023-08-31T18:21:25;3.83;;;1.37;;
21416;SDS011;10869;52.238;10.716;2023-08-31T18:23:52;4.87;;;1.43;;
21416;SDS011;10869;52.238;10.716;2023-08-31T18:26:18;5.37;;;1.60;;
21416;SDS011;10869;52.238;10.716;2023-08-31T18:28:44;5.50;;;1.50;;
21416;SDS011;10869;52.238;10.716;2023-08-31T18:31:13;5.20;;;1.50;;
21416;SDS011;10869;52.238;10.716;2023-08-31T18:33:40;4.93;;;1.70;;
21416;SDS011;10869;52.238;10.716;2023-08-31T18:36:08;4.93;;;1.60;;
21416;SDS011;10869;52.238;10.716;2023-08-31T18:38:35;5.37;;;1.87;;
21416;SDS011;10869;52.238;10.716;2023-08-31T18:41:03;3.50;;;1.73;;
21416;SDS011;10869;52.238;10.716;2023-08-31T18:43:29;2.93;;;1.50;;
21416;SDS011;10869;52.238;10.716;2023-08-31T18:45:55;4.47;;;1.53;;
21416;SDS011;10869;52.238;10.716;2023-08-31T18:48:21;5.67;;;1.63;;
21416;SDS011;10869;52.238;10.716;2023-08-31T18:50:54;3.13;;;1.50;;
21416;SDS011;10869;52.238;10.716;2023-08-31T18:53:23;5.23;;;1.63;;
21416;SDS011;10869;52.238;10.716;2023-08-31T18:55:58;4.93;;;1.80;;
21416;SDS011;10869;52.238;10.716;2023-08-31T18:58:29;4.10;;;1.93;;
21416;SDS011;10869;52.238;10.716;2023-08-31T19:00:58;7.83;;;2.10;;
21416;SDS011;10869;52.238;10.716;2023-08-31T19:03:27;5.53;;;2.03;;
21416;SDS011;10869;52.238;10.716;2023-08-31T19:05:54;3.30;;;1.80;;
21416;SDS011;10869;52.238;10.716;2023-08-31T19:08:20;5.60;;;2.17;;
21416;SDS011;10869;52.238;10.716;2023-08-31T19:14:08;2.43;;;1.53;;
21416;SDS011;10869;52.238;10.716;2023-08-31T19:16:34;5.03;;;1.90;;
21416;SDS011;10869;52.238;10.716;2023-08-31T19:19:01;5.07;;;2.23;;
21416;SDS011;10869;52.238;10.716;2023-08-31T19:50:42;5.17;;;1.97;;
21416;SDS011;10869;52.238;10.716;2023-08-31T19:53:08;6.10;;;2.00;;
21416;SDS011;10869;52.238;10.716;2023-08-31T19:59:15;3.67;;;1.60;;
21416;SDS011;10869;52.238;10.716;2023-08-31T20:01:45;8.87;;;2.10;;
21416;SDS011;10869;52.238;10.716;2023-08-31T20:06:47;8.20;;;2.40;;
21416;SDS011;10869;52.238;10.716;2023-08-31T20:12:43;5.23;;;1.70;;
21416;SDS011;10869;52.238;10.716;2023-08-31T20:15:11;6.17;;;2.33;;
21416;SDS011;10869;52.238;10.716;2023-08-31T20:17:37;5.57;;;2.30;;
21416;SDS011;10869;52.238;10.716;2023-08-31T20:23:25;4.67;;;2.17;;
21416;SDS011;10869;52.238;10.716;2023-08-31T20:25:53;3.97;;;2.00;;
21416;SDS011;10869;52.238;10.716;2023-08-31T20:28:19;2.87;;;1.83;;
21416;SDS011;10869;52.238;10.716;2023-08-31T20:34:07;5.77;;;2.00;;
21416;SDS011;10869;52.238;10.716;2023-08-31T20:39:09;6.53;;;2.10;;
21416;SDS011;10869;52.238;10.716;2023-08-31T20:41:36;5.87;;;2.57;;
21416;SDS011;10869;52.238;10.716;2023-08-31T20:44:05;4.90;;;2.23;;
21416;SDS011;10869;52.238;10.716;2023-08-31T20:49:54;7.97;;;2.67;;
21416;SDS011;10869;52.238;10.716;2023-08-31T20:52:20;6.23;;;2.40;;
21416;SDS011;10869;52.238;10.716;2023-08-31T20:54:49;5.17;;;2.63;;
21416;SDS011;10869;52.238;10.716;2023-08-31T20:57:15;6.00;;;2.90;;
21416;SDS011;10869;52.238;10.716;2023-08-31T20:59:46;5.70;;;2.60;;
21416;SDS011;10869;52.238;10.716;2023-08-31T21:02:14;9.37;;;3.07;;
21416;SDS011;10869;52.238;10.716;2023-08-31T21:04:39;5.20;;;2.60;;
21416;SDS011;10869;52.238;10.716;2023-08-31T21:07:05;5.87;;;2.87;;
21416;SDS011;10869;52.238;10.716;2023-08-31T21:09:34;6.90;;;3.50;;
21416;SDS011;10869;52.238;10.716;2023-08-31T21:12:00;6.97;;;3.30;;
21416;SDS011;10869;52.238;10.716;2023-08-31T21:14:26;8.73;;;3.63;;
21416;SDS011;10869;52.238;10.716;2023-08-31T21:16:52;6.97;;;3.70;;
21416;SDS011;10869;52.238;10.716;2023-08-31T21:19:18;8.50;;;4.17;;
21416;SDS011;10869;52.238;10.716;2023-08-31T21:21:43;7.03;;;4.03;;
21416;SDS011;10869;52.238;10.716;2023-08-31T21:24:09;8.20;;;3.73;;
21416;SDS011;10869;52.238;10.716;2023-08-31T21:26:36;8.47;;;3.97;;
21416;SDS011;10869;52.238;10.716;2023-08-31T21:29:03;7.23;;;4.10;;
21416;SDS011;10869;52.238;10.716;2023-08-31T21:31:30;7.03;;;3.93;;
21416;SDS011;10869;52.238;10.716;2023-08-31T21:33:56;6.03;;;3.90;;
21416;SDS011;10869;52.238;10.716;2023-08-31T21:36:25;6.93;;;4.43;;
21416;SDS011;10869;52.238;10.716;2023-08-31T21:38:51;10.33;;;4.40;;
21416;SDS011;10869;52.238;10.716;2023-08-31T21:41:16;8.03;;;4.60;;
21416;SDS011;10869;52.238;10.716;2023-08-31T21:43:42;8.17;;;4.93;;
21416;SDS011;10869;52.238;10.716;2023-08-31T21:46:08;6.87;;;4.63;;
21416;SDS011;10869;52.238;10.716;2023-08-31T21:48:34;8.07;;;4.53;;
21416;SDS011;10869;52.238;10.716;2023-08-31T21:50:59;11.20;;;5.20;;
21416;SDS011;10869;52.238;10.716;2023-08-31T21:53:25;9.67;;;5.80;;
21416;SDS011;10869;52.238;10.716;2023-08-31T21:55:51;14.00;;;5.80;;
21416;SDS011;10869;52.238;10.716;2023-08-31T21:58:17;10.20;;;5.63;;
21416;SDS011;10869;52.238;10.716;2023-08-31T22:00:42;8.80;;;5.60;;
21416;SDS011;10869;52.238;10.716;2023-08-31T22:03:09;11.03;;;6.00;;
21416;SDS011;10869;52.238;10.716;2023-08-31T22:05:34;9.80;;;5.33;;
21416;SDS011;10869;52.238;10.716;2023-08-31T22:34:57;8.73;;;5.50;;
21416;SDS011;10869;52.238;10.716;2023-08-31T22:37:22;9.37;;;5.73;;
21416;SDS011;10869;52.238;10.716;2023-08-31T22:39:49;12.03;;;6.03;;
21416;SDS011;10869;52.238;10.716;2023-08-31T22:42:15;7.47;;;5.20;;
21416;SDS011;10869;52.238;10.716;2023-08-31T22:44:41;10.67;;;5.57;;
21416;SDS011;10869;52.238;10.716;2023-08-31T22:47:06;8.47;;;5.67;;
21416;SDS011;10869;52.238;10.716;2023-08-31T22:49:32;8.40;;;5.13;;
21416;SDS011;10869;52.238;10.716;2023-08-31T22:51:58;9.23;;;5.20;;
21416;SDS011;10869;52.238;10.716;2023-08-31T22:54:24;9.27;;;5.13;;
21416;SDS011;10869;52.238;10.716;2023-08-31T22:56:50;9.27;;;5.00;;
21416;SDS011;10869;52.238;10.716;2023-08-31T22:59:16;9.03;;;4.87;;
